Time;durP1;ratioP1;P1;durP2;ratioP2;P2;SDS_P1;SDS_P2;PMS_P1;PMS_P2;Temp;Humidity;BMP_temperature;BMP_pressure;BME280_temperature;BME280_humidity;BME280_pressure;Samples;Min_cycle;Max_cycle;Signal;HPM_P1;HPM_P2
2023/01/07 00:01:19;;;;;;;23.90;9.27;;;;;;;5.99;59.21;94619.81;5065783;28;20024;-91
2023/01/07 00:03:46;;;;;;;24.98;9.82;;;;;;;5.89;59.57;94625.06;5065658;28;20021;-92
2023/01/07 00:06:16;;;;;;;25.85;9.52;;;;;;;5.81;59.90;94613.94;5064416;28;20020;-90
2023/01/07 00:08:43;;;;;;;18.33;8.00;;;;;;;5.70;60.29;94617.66;5065496;28;20021;-89
2023/01/07 00:11:11;;;;;;;19.10;8.52;;;;;;;5.63;60.82;94609.16;5064286;28;20017;-89
2023/01/07 00:13:38;;;;;;;20.48;9.52;;;;;;;5.60;60.80;94618.44;5064929;28;20023;-89
2023/01/07 00:16:06;;;;;;;25.70;10.52;;;;;;;5.51;60.85;94617.34;5065097;28;20016;-90
2023/01/07 00:18:32;;;;;;;22.58;9.27;;;;;;;5.38;61.19;94623.94;5065386;28;20024;-91
2023/01/07 00:21:02;;;;;;;29.13;10.38;;;;;;;5.27;61.52;94627.63;5065074;28;20184;-90
2023/01/07 00:23:29;;;;;;;28.38;11.65;;;;;;;5.19;61.73;94628.09;5065118;28;20016;-91
2023/01/07 00:26:01;;;;;;;22.52;10.07;;;;;;;5.07;62.05;94633.63;5065545;28;20062;-89
2023/01/07 00:28:27;;;;;;;20.23;8.73;;;;;;;5.01;62.13;94627.53;5066157;28;20082;-88
2023/01/07 00:31:09;;;;;;;24.85;10.07;;;;;;;4.89;62.83;94624.31;5065649;28;20319;-89
2023/01/07 00:33:35;;;;;;;21.92;8.60;;;;;;;4.84;62.87;94621.66;5064513;28;20028;-90
2023/01/07 00:36:09;;;;;;;18.38;8.63;;;;;;;4.77;62.95;94621.88;5065652;28;20017;-92
2023/01/07 00:38:36;;;;;;;31.52;9.57;;;;;;;4.70;63.18;94625.81;5065893;28;20025;-92
2023/01/07 00:41:04;;;;;;;22.98;8.90;;;;;;;4.63;63.49;94616.28;5065825;28;20032;-91
2023/01/07 00:43:30;;;;;;;22.60;9.07;;;;;;;4.52;63.44;94621.75;5065087;28;20025;-91
2023/01/07 00:45:55;;;;;;;20.92;9.13;;;;;;;4.49;63.70;94628.34;5064842;28;20027;-87
2023/01/07 00:48:22;;;;;;;20.38;9.07;;;;;;;4.41;63.68;94636.75;5064892;28;20092;-91
2023/01/07 00:50:49;;;;;;;26.48;9.65;;;;;;;4.36;64.24;94631.44;5065245;28;20047;-91
2023/01/07 00:53:15;;;;;;;21.48;10.95;;;;;;;4.31;64.23;94634.84;5064812;28;20032;-91
2023/01/07 00:55:40;;;;;;;29.15;9.20;;;;;;;4.28;64.32;94643.28;5064549;28;20025;-90
2023/01/07 00:58:06;;;;;;;25.67;10.25;;;;;;;4.21;64.40;94648.78;5064372;28;20352;-90
2023/01/07 01:00:32;;;;;;;22.33;9.32;;;;;;;4.18;63.99;94657.19;5064597;28;20057;-91
2023/01/07 01:02:58;;;;;;;17.67;8.20;;;;;;;4.13;64.05;94643.97;5064727;28;20025;-91
2023/01/07 01:05:24;;;;;;;17.83;7.40;;;;;;;4.06;64.14;94637.31;5064759;28;20226;-91
2023/01/07 01:07:49;;;;;;;18.02;6.68;;;;;;;4.00;64.04;94644.38;5063896;28;20043;-91
2023/01/07 01:10:17;;;;;;;17.73;7.35;;;;;;;3.98;64.12;94649.13;5064385;28;20029;-90
2023/01/07 01:12:43;;;;;;;15.57;6.85;;;;;;;3.94;64.27;94661.22;5064280;28;20021;-91
2023/01/07 01:15:12;;;;;;;14.50;6.30;;;;;;;3.89;64.31;94654.06;5063044;28;20043;-90
2023/01/07 01:17:38;;;;;;;16.45;6.55;;;;;;;3.87;64.66;94642.97;5064105;28;20319;-90
2023/01/07 01:20:05;;;;;;;11.38;5.53;;;;;;;3.86;64.58;94648.50;5063987;28;20074;-91
2023/01/07 01:22:31;;;;;;;13.90;5.72;;;;;;;3.85;64.67;94642.44;5064396;28;20025;-90
2023/01/07 01:24:57;;;;;;;12.07;5.95;;;;;;;3.82;65.00;94646.34;5064213;28;20079;-91
2023/01/07 01:27:22;;;;;;;20.48;6.10;;;;;;;3.83;64.73;94649.78;5064092;28;20035;-90
2023/01/07 01:29:47;;;;;;;14.38;5.63;;;;;;;3.72;65.00;94646.25;5064342;28;20024;-91
2023/01/07 01:32:13;;;;;;;13.25;6.15;;;;;;;3.72;65.47;94643.63;5064045;28;20092;-90
2023/01/07 01:34:38;;;;;;;13.18;6.32;;;;;;;3.72;65.73;94653.38;5064132;28;20031;-91
2023/01/07 01:37:04;;;;;;;14.70;5.93;;;;;;;3.68;65.96;94642.53;5063915;28;20036;-90
2023/01/07 01:39:30;;;;;;;13.50;5.93;;;;;;;3.67;66.09;94648.06;5064145;28;20029;-90
2023/01/07 01:41:55;;;;;;;12.38;5.60;;;;;;;3.72;65.85;94643.63;5064029;28;20027;-91
2023/01/07 01:44:47;;;;;;;12.27;5.78;;;;;;;3.74;65.90;94651.28;5064195;28;20245;-91
2023/01/07 01:47:47;;;;;;;14.13;5.87;;;;;;;3.80;65.64;94640.53;5063631;28;20104;-90
2023/01/07 01:50:30;;;;;;;11.95;5.72;;;;;;;3.79;65.49;94633.66;5062937;28;20092;-88
2023/01/07 01:53:06;;;;;;;11.23;5.05;;;;;;;3.77;65.58;94642.88;5062690;28;20369;-91
2023/01/07 01:55:39;;;;;;;10.05;5.25;;;;;;;3.73;65.45;94650.50;5062691;28;20100;-90
2023/01/07 01:58:08;;;;;;;12.30;5.32;;;;;;;3.70;65.42;94640.44;5062929;28;20028;-92
2023/01/07 02:00:35;;;;;;;11.38;5.65;;;;;;;3.69;65.42;94636.22;5062697;28;20027;-92
2023/01/07 02:03:01;;;;;;;13.68;5.03;;;;;;;3.67;65.55;94634.88;5063819;28;20020;-92
2023/01/07 02:05:35;;;;;;;14.38;5.25;;;;;;;3.60;65.66;94622.72;5063835;28;20020;-92
2023/01/07 02:08:00;;;;;;;14.20;5.53;;;;;;;3.55;65.75;94637.69;5063797;28;20017;-92
2023/01/07 02:10:27;;;;;;;11.00;6.45;;;;;;;3.49;65.92;94631.56;5063773;28;20028;-92
2023/01/07 02:13:03;;;;;;;16.33;5.40;;;;;;;3.44;66.23;94628.06;5065192;28;20028;-92
2023/01/07 02:16:25;;;;;;;12.77;5.00;;;;;;;3.44;66.44;94617.53;5069924;28;20037;-91
2023/01/07 02:19:27;;;;;;;17.52;4.97;;;;;;;3.41;66.60;94626.72;5050318;28;20021;-91
2023/01/07 02:21:55;;;;;;;14.98;5.13;;;;;;;3.41;66.79;94622.25;5055357;28;20044;-92
2023/01/07 02:24:46;;;;;;;9.70;4.82;;;;;;;3.39;66.81;94626.19;5074906;28;20055;-91
2023/01/07 02:27:33;;;;;;;13.75;4.82;;;;;;;3.38;66.84;94620.13;5077079;28;20029;-92
2023/01/07 02:30:23;;;;;;;19.17;6.10;;;;;;;3.35;66.85;94620.63;5074597;28;20025;-92
2023/01/07 02:32:51;;;;;;;14.00;4.88;;;;;;;3.31;67.10;94616.88;5068895;28;20021;-94
2023/01/07 02:35:43;;;;;;;13.02;5.28;;;;;;;3.35;67.09;94623.25;5068140;28;20341;-94
2023/01/07 02:38:14;;;;;;;13.73;5.60;;;;;;;3.33;67.24;94614.78;5051003;28;20033;-91
2023/01/07 02:40:58;;;;;;;14.05;5.20;;;;;;;3.30;67.04;94614.53;5067584;28;20482;-90
2023/01/07 02:43:52;;;;;;;12.18;5.25;;;;;;;3.28;67.17;94622.66;5067667;28;20025;-91
2023/01/07 02:46:29;;;;;;;11.45;4.82;;;;;;;3.25;67.18;94622.34;5067297;28;20315;-90
2023/01/07 02:48:58;;;;;;;14.48;5.20;;;;;;;3.23;67.54;94619.97;5067133;28;20352;-90
2023/01/07 02:51:34;;;;;;;11.57;5.07;;;;;;;3.23;67.47;94619.97;5067040;28;20095;-90
2023/01/07 02:54:00;;;;;;;10.65;4.68;;;;;;;3.22;67.51;94623.66;5067122;28;20104;-90
2023/01/07 02:56:48;;;;;;;13.00;4.72;;;;;;;3.17;67.65;94615.69;5066765;28;20025;-91
2023/01/07 02:59:32;;;;;;;15.30;5.40;;;;;;;3.16;67.81;94622.00;5066867;28;20033;-91
2023/01/07 03:02:21;;;;;;;12.10;5.22;;;;;;;3.12;67.79;94639.34;5066717;28;20025;-91
2023/01/07 03:04:49;;;;;;;11.70;5.07;;;;;;;3.10;67.78;94626.44;5066965;28;20024;-92
2023/01/07 03:07:17;;;;;;;16.73;6.15;;;;;;;3.11;67.33;94635.13;5066998;28;20020;-95
2023/01/07 03:09:49;;;;;;;10.02;4.78;;;;;;;3.07;67.36;94634.00;5065671;28;20063;-94
2023/01/07 03:12:19;;;;;;;14.63;6.07;;;;;;;2.93;67.93;94623.88;5066684;28;20041;-91
2023/01/07 03:14:50;;;;;;;17.20;5.32;;;;;;;2.90;68.29;94636.72;5066667;28;20322;-92
2023/01/07 03:17:41;;;;;;;16.98;4.97;;;;;;;2.86;68.14;94639.06;5066815;28;20017;-92
2023/01/07 03:20:07;;;;;;;15.10;5.80;;;;;;;2.85;68.23;94642.75;5066609;28;20025;-91
2023/01/07 03:22:35;;;;;;;15.82;6.20;;;;;;;2.81;68.42;94631.09;5066572;28;20021;-91
2023/01/07 03:25:02;;;;;;;14.23;5.47;;;;;;;2.81;68.44;94644.28;5066758;28;20043;-91
2023/01/07 03:27:32;;;;;;;16.80;6.22;;;;;;;2.76;68.59;94637.09;5065472;28;20027;-91
2023/01/07 03:30:01;;;;;;;12.00;5.65;;;;;;;2.76;68.59;94631.03;5066133;28;20024;-90
2023/01/07 03:32:33;;;;;;;13.60;5.95;;;;;;;2.75;68.58;94643.41;5065320;28;20032;-91
2023/01/07 03:34:59;;;;;;;15.68;6.90;;;;;;;2.74;68.83;94636.53;5066476;28;20021;-92
2023/01/07 03:37:26;;;;;;;13.93;6.25;;;;;;;2.73;68.80;94627.06;5066308;28;20039;-91
2023/01/07 03:39:51;;;;;;;17.85;5.93;;;;;;;2.74;68.97;94633.91;5066209;28;20025;-91
2023/01/07 03:42:41;;;;;;;13.05;6.75;;;;;;;2.74;68.79;94628.63;5066426;28;20044;-92
2023/01/07 03:45:14;;;;;;;13.90;5.88;;;;;;;2.74;68.97;94638.38;5066121;28;20044;-91
2023/01/07 03:47:44;;;;;;;15.70;6.65;;;;;;;2.74;68.95;94639.16;5065917;28;20060;-91
2023/01/07 03:50:09;;;;;;;16.58;5.90;;;;;;;2.75;68.89;94635.50;5065138;28;20029;-91
2023/01/07 03:52:35;;;;;;;14.85;6.28;;;;;;;2.78;68.71;94645.53;5065925;28;20021;-91
2023/01/07 03:55:00;;;;;;;13.68;5.75;;;;;;;2.77;68.63;94638.69;5065847;28;20024;-91
2023/01/07 03:57:26;;;;;;;10.25;5.55;;;;;;;2.76;68.61;94649.47;5065579;28;20084;-91
2023/01/07 03:59:51;;;;;;;12.32;6.03;;;;;;;2.75;68.72;94648.66;5065778;28;20025;-90
2023/01/07 04:02:17;;;;;;;17.15;7.47;;;;;;;2.73;68.61;94647.34;5065780;28;20362;-91
2023/01/07 04:04:42;;;;;;;23.58;6.05;;;;;;;2.75;68.93;94650.50;5065569;28;20075;-90
2023/01/07 04:07:08;;;;;;;17.65;6.10;;;;;;;2.70;69.03;94663.59;5065673;28;20028;-91
2023/01/07 04:09:33;;;;;;;15.00;6.07;;;;;;;2.72;68.80;94659.69;5065429;28;20051;-90
2023/01/07 04:11:59;;;;;;;17.40;6.40;;;;;;;2.67;69.07;94661.47;5065228;28;20025;-91
2023/01/07 04:14:24;;;;;;;15.15;5.68;;;;;;;2.71;69.28;94660.72;5065185;28;20031;-91
2023/01/07 04:16:50;;;;;;;12.93;5.20;;;;;;;2.74;69.35;94656.81;5064265;28;20029;-90
2023/01/07 04:19:16;;;;;;;14.18;6.70;;;;;;;2.73;69.12;94657.84;5065248;28;20036;-91
2023/01/07 04:21:42;;;;;;;15.65;6.20;;;;;;;2.62;69.38;94664.81;5065201;28;20025;-93
2023/01/07 04:24:08;;;;;;;20.50;9.23;;;;;;;2.62;69.71;94667.44;5065366;28;20024;-93
2023/01/07 04:26:33;;;;;;;16.73;6.28;;;;;;;2.63;69.85;94673.53;5065132;28;20074;-93
2023/01/07 04:28:59;;;;;;;17.88;6.63;;;;;;;2.65;69.82;94676.72;5065118;28;20023;-93
2023/01/07 04:31:24;;;;;;;15.05;7.28;;;;;;;2.67;69.82;94664.09;5064922;28;20191;-90
2023/01/07 04:33:49;;;;;;;17.00;7.47;;;;;;;2.71;69.81;94665.19;5065052;28;20017;-90
2023/01/07 04:36:15;;;;;;;14.30;6.78;;;;;;;2.73;69.83;94673.66;5064844;28;20307;-89
2023/01/07 04:38:40;;;;;;;20.52;6.72;;;;;;;2.76;69.72;94668.69;5064642;28;20048;-90
2023/01/07 04:41:06;;;;;;;14.45;6.93;;;;;;;2.80;69.44;94674.25;5064223;28;20329;-89
2023/01/07 04:43:32;;;;;;;17.25;6.50;;;;;;;2.78;69.39;94671.06;5064644;28;20021;-89
2023/01/07 04:45:57;;;;;;;15.88;6.60;;;;;;;2.82;69.75;94677.44;5065200;28;20242;-89
2023/01/07 04:48:22;;;;;;;12.93;6.28;;;;;;;2.86;69.44;94675.91;5064760;28;20021;-88
2023/01/07 04:50:48;;;;;;;16.63;7.10;;;;;;;2.84;69.26;94670.09;5065323;28;20027;-88
2023/01/07 04:53:14;;;;;;;17.73;6.60;;;;;;;2.85;69.29;94674.34;5065456;28;20032;-89
2023/01/07 04:55:39;;;;;;;19.23;7.03;;;;;;;2.85;69.31;94673.50;5065314;28;20026;-92
2023/01/07 04:58:05;;;;;;;17.67;5.93;;;;;;;2.87;69.31;94668.81;5064606;28;20122;-91
2023/01/07 05:00:30;;;;;;;11.88;5.65;;;;;;;2.85;69.59;94671.69;5064497;28;20395;-92
2023/01/07 05:02:56;;;;;;;19.13;6.28;;;;;;;2.85;69.34;94684.88;5064596;28;20032;-92
2023/01/07 05:05:21;;;;;;;17.13;6.75;;;;;;;2.85;69.43;94671.69;5064727;28;20024;-92
2023/01/07 05:07:47;;;;;;;14.07;6.07;;;;;;;2.85;69.40;94676.97;5064528;28;20017;-91
2023/01/07 05:10:12;;;;;;;14.13;6.05;;;;;;;2.83;69.39;94670.34;5064705;28;20028;-91
2023/01/07 05:12:38;;;;;;;15.00;7.38;;;;;;;2.79;69.64;94668.19;5064343;28;20614;-91
2023/01/07 05:15:05;;;;;;;15.93;5.75;;;;;;;2.81;69.41;94670.59;5064564;28;20020;-92
2023/01/07 05:17:30;;;;;;;13.93;5.38;;;;;;;2.72;69.52;94672.03;5064582;28;20031;-92
2023/01/07 05:19:56;;;;;;;11.07;5.43;;;;;;;2.73;69.62;94684.19;5066060;28;20314;-92
2023/01/07 05:22:22;;;;;;;16.52;5.63;;;;;;;2.68;70.00;94682.25;5065478;28;20047;-92
2023/01/07 05:24:48;;;;;;;15.73;6.28;;;;;;;2.69;69.82;94688.34;5063926;28;20044;-93
2023/01/07 05:27:13;;;;;;;20.15;6.20;;;;;;;2.67;69.69;94680.69;5064650;28;20021;-92
2023/01/07 05:29:39;;;;;;;22.95;7.82;;;;;;;2.60;69.91;94688.72;5064249;28;20032;-93
2023/01/07 05:32:04;;;;;;;22.90;7.50;;;;;;;2.60;69.89;94694.00;5066619;28;20040;-91
2023/01/07 05:34:30;;;;;;;16.25;7.68;;;;;;;2.61;70.28;94690.34;5067599;28;20041;-89
2023/01/07 05:36:58;;;;;;;27.27;9.10;;;;;;;2.57;70.27;94686.59;5069749;28;20020;-89
2023/01/07 05:39:24;;;;;;;27.48;8.25;;;;;;;2.63;70.33;94692.72;5066006;28;20048;-89
2023/01/07 05:41:50;;;;;;;21.67;9.15;;;;;;;2.62;70.23;94688.50;5064181;28;20095;-89
2023/01/07 05:44:15;;;;;;;22.85;9.38;;;;;;;2.65;70.42;94689.88;5064143;28;20021;-90
2023/01/07 05:46:41;;;;;;;20.08;8.48;;;;;;;2.64;70.47;94691.69;5063857;28;20029;-90
2023/01/07 05:49:06;;;;;;;25.33;9.90;;;;;;;2.67;70.42;94688.56;5063793;28;20024;-89
2023/01/07 05:51:32;;;;;;;26.27;11.68;;;;;;;2.67;70.48;94682.53;5062852;28;20033;-90
2023/01/07 05:53:57;;;;;;;23.55;10.57;;;;;;;2.69;70.23;94688.34;5066301;28;20055;-89
2023/01/07 05:56:23;;;;;;;26.20;10.05;;;;;;;2.68;70.30;94684.09;5068354;28;20040;-90
2023/01/07 05:58:49;;;;;;;20.42;9.65;;;;;;;2.63;70.03;94676.16;5068598;28;20024;-93
2023/01/07 06:01:14;;;;;;;24.83;9.52;;;;;;;2.65;70.07;94684.59;5068459;28;20025;-93
2023/01/07 06:03:39;;;;;;;23.33;9.95;;;;;;;2.63;69.98;94687.47;5067771;28;20024;-93
2023/01/07 06:06:08;;;;;;;20.50;9.95;;;;;;;2.61;70.04;94700.88;5068001;28;20024;-93
2023/01/07 06:08:34;;;;;;;18.45;8.30;;;;;;;2.60;70.27;94701.88;5068033;28;20029;-94
2023/01/07 06:11:00;;;;;;;16.98;7.82;;;;;;;2.60;70.46;94712.41;5067907;28;20027;-94
2023/01/07 06:13:25;;;;;;;14.68;7.60;;;;;;;2.60;70.63;94707.16;5067935;28;20041;-94
2023/01/07 06:15:51;;;;;;;14.80;7.00;;;;;;;2.57;70.79;94707.66;5067614;28;20024;-94
2023/01/07 06:18:16;;;;;;;19.23;7.40;;;;;;;2.60;70.93;94704.53;5067706;28;20066;-94
2023/01/07 06:20:42;;;;;;;12.38;5.63;;;;;;;2.63;70.93;94700.63;5068030;28;20113;-93
2023/01/07 06:23:09;;;;;;;13.93;5.68;;;;;;;2.70;71.09;94713.63;5067675;28;20214;-94
2023/01/07 06:25:34;;;;;;;15.85;6.53;;;;;;;2.75;71.07;94703.16;5067277;28;20025;-91
2023/01/07 06:28:00;;;;;;;19.95;6.88;;;;;;;2.80;71.06;94705.84;5067355;28;20421;-91
2023/01/07 06:30:25;;;;;;;20.50;7.85;;;;;;;2.89;70.54;94700.94;5067308;28;20036;-91
2023/01/07 06:32:51;;;;;;;20.13;7.55;;;;;;;2.91;70.37;94706.78;5067390;28;20021;-91
2023/01/07 06:35:16;;;;;;;19.65;7.88;;;;;;;2.96;70.28;94701.59;5067335;28;20203;-91
2023/01/07 06:37:42;;;;;;;19.25;7.55;;;;;;;2.99;70.09;94714.25;5067312;28;20319;-91
2023/01/07 06:40:08;;;;;;;16.88;7.68;;;;;;;3.04;69.95;94716.16;5065999;28;20035;-89
2023/01/07 06:42:34;;;;;;;20.92;7.15;;;;;;;3.01;70.16;94713.00;5066663;28;20028;-88
2023/01/07 06:44:59;;;;;;;22.60;7.82;;;;;;;3.05;70.08;94712.47;5065724;28;20052;-89
2023/01/07 06:47:24;;;;;;;23.73;9.30;;;;;;;3.09;70.13;94708.31;5066695;28;20025;-89
2023/01/07 06:49:51;;;;;;;20.23;8.52;;;;;;;3.09;70.37;94703.84;5066721;28;20029;-89
2023/01/07 06:52:16;;;;;;;14.52;7.15;;;;;;;3.14;70.33;94716.28;5066663;28;20021;-90
2023/01/07 06:54:42;;;;;;;18.35;7.30;;;;;;;3.15;70.21;94707.34;5066523;28;20084;-86
2023/01/07 06:57:07;;;;;;;20.17;7.30;;;;;;;3.12;70.10;94707.84;5065536;28;20032;-89
2023/01/07 06:59:32;;;;;;;20.63;6.53;;;;;;;3.16;70.57;94730.03;5066990;28;20020;-95
2023/01/07 07:01:58;;;;;;;12.52;6.05;;;;;;;3.17;70.32;94713.16;5066923;28;20051;-95
2023/01/07 07:04:23;;;;;;;15.85;6.75;;;;;;;3.17;70.43;94713.16;5065073;28;20067;-90
2023/01/07 07:06:49;;;;;;;16.92;6.32;;;;;;;3.23;70.07;94709.53;5066508;28;20215;-89
2023/01/07 07:09:14;;;;;;;14.85;7.65;;;;;;;3.31;70.12;94706.47;5066683;28;20053;-93
2023/01/07 07:11:40;;;;;;;15.40;6.85;;;;;;;3.37;69.82;94721.28;5065518;28;20334;-92
2023/01/07 07:14:05;;;;;;;25.63;8.45;;;;;;;3.41;69.88;94711.84;5066676;28;20020;-93
2023/01/07 07:16:30;;;;;;;17.58;6.78;;;;;;;3.51;69.73;94713.03;5066393;28;20323;-92
2023/01/07 07:18:56;;;;;;;17.30;8.00;;;;;;;3.52;69.80;94722.50;5065828;28;20029;-91
2023/01/07 07:21:22;;;;;;;27.20;7.55;;;;;;;3.58;69.67;94718.88;5069879;28;20222;-91
2023/01/07 07:23:47;;;;;;;21.58;8.07;;;;;;;3.58;69.57;94726.78;5070691;28;20025;-93
2023/01/07 07:26:13;;;;;;;28.40;8.23;;;;;;;3.65;69.49;94726.63;5071626;28;20020;-91
2023/01/07 07:28:41;;;;;;;23.23;8.82;;;;;;;3.73;69.46;94726.19;5074810;28;20043;-92
2023/01/07 07:31:08;;;;;;;21.40;7.85;;;;;;;3.82;69.04;94725.47;5076555;28;20022;-89
2023/01/07 07:33:34;;;;;;;20.42;7.75;;;;;;;3.89;68.90;94722.63;5075477;28;20017;-92
2023/01/07 07:35:59;;;;;;;21.92;7.68;;;;;;;3.93;68.76;94722.91;5075235;28;20078;-92
2023/01/07 07:38:25;;;;;;;18.20;6.28;;;;;;;4.00;68.61;94720.88;5070005;28;20016;-95
2023/01/07 07:40:50;;;;;;;17.65;7.85;;;;;;;4.08;68.41;94714.38;5070562;28;20028;-96
2023/01/07 07:43:16;;;;;;;15.25;7.15;;;;;;;4.15;68.08;94720.22;5067075;28;20025;-95
2023/01/07 07:45:42;;;;;;;23.92;6.65;;;;;;;4.21;67.74;94706.84;5066375;28;20188;-93
2023/01/07 07:48:08;;;;;;;11.93;5.40;;;;;;;4.30;67.36;94716.91;5066531;28;20041;-94
2023/01/07 07:50:34;;;;;;;17.35;5.47;;;;;;;4.34;67.41;94708.25;5067145;28;20146;-95
2023/01/07 07:53:00;;;;;;;23.65;6.50;;;;;;;4.39;67.43;94704.84;5065105;28;20024;-90
2023/01/07 07:55:25;;;;;;;14.38;5.53;;;;;;;4.43;67.04;94713.84;5064597;28;20043;-86
2023/01/07 07:57:55;;;;;;;18.20;6.53;;;;;;;4.47;67.08;94707.00;5065832;28;20080;-91
2023/01/07 08:00:21;;;;;;;13.63;5.40;;;;;;;4.52;66.82;94720.25;5066143;28;20029;-91
2023/01/07 08:02:46;;;;;;;11.88;5.18;;;;;;;4.52;66.69;94712.31;5068518;28;20029;-94
2023/01/07 08:05:12;;;;;;;16.42;5.70;;;;;;;4.54;66.96;94719.97;5066495;28;20037;-95
2023/01/07 08:07:38;;;;;;;16.33;5.85;;;;;;;4.57;66.93;94715.00;5066841;28;20052;-93
2023/01/07 08:10:05;;;;;;;22.95;6.30;;;;;;;4.66;66.90;94725.91;5066225;28;20032;-94
2023/01/07 08:12:35;;;;;;;13.95;5.90;;;;;;;4.76;66.54;94714.56;5066485;28;20028;-94
2023/01/07 08:15:00;;;;;;;20.58;5.93;;;;;;;4.85;66.27;94718.34;5066608;28;20096;-91
2023/01/07 08:17:26;;;;;;;10.85;5.72;;;;;;;4.91;65.94;94721.81;5064046;28;20025;-82
2023/01/07 08:19:51;;;;;;;18.33;6.55;;;;;;;4.98;65.78;94722.38;5064176;28;20322;-83
2023/01/07 08:22:17;;;;;;;18.27;7.40;;;;;;;5.03;65.40;94720.56;5064137;28;20031;-83
2023/01/07 08:24:42;;;;;;;19.15;5.95;;;;;;;5.11;65.43;94721.09;5063960;28;20037;-82
2023/01/07 08:27:08;;;;;;;13.48;6.03;;;;;;;5.20;64.98;94724.84;5064022;28;20330;-83
2023/01/07 08:29:36;;;;;;;15.90;6.70;;;;;;;5.26;64.84;94723.03;5064019;28;20025;-83
2023/01/07 08:32:01;;;;;;;15.57;7.22;;;;;;;5.33;64.67;94721.75;5063863;28;20025;-83
2023/01/07 08:34:27;;;;;;;14.65;7.07;;;;;;;5.39;64.44;94720.72;5063835;28;20069;-83
2023/01/07 08:36:53;;;;;;;17.80;6.80;;;;;;;5.47;64.49;94703.53;5063775;28;20020;-83
2023/01/07 08:39:18;;;;;;;17.42;7.75;;;;;;;5.56;64.03;94711.78;5063872;28;20048;-87
2023/01/07 08:41:44;;;;;;;16.65;7.90;;;;;;;5.63;63.91;94705.16;5063728;28;20285;-85
2023/01/07 08:44:09;;;;;;;14.50;6.85;;;;;;;5.66;63.30;94711.81;5063642;28;20025;-82
2023/01/07 08:46:35;;;;;;;18.75;6.10;;;;;;;5.71;63.23;94708.38;5062978;28;20025;-88
2023/01/07 08:49:00;;;;;;;21.15;6.85;;;;;;;5.80;63.15;94710.25;5064094;28;20071;-92
2023/01/07 08:51:26;;;;;;;25.05;7.60;;;;;;;5.87;62.76;94717.13;5064888;28;20139;-91
2023/01/07 08:53:51;;;;;;;10.77;6.45;;;;;;;5.91;62.77;94718.19;5063578;28;20028;-91
2023/01/07 08:56:17;;;;;;;11.25;6.80;;;;;;;5.93;62.62;94716.88;5064288;28;20083;-91
2023/01/07 08:58:42;;;;;;;14.00;6.72;;;;;;;6.04;62.33;94709.78;5063572;28;20079;-91
2023/01/07 09:01:09;;;;;;;17.10;7.20;;;;;;;6.13;61.69;94707.41;5064598;28;20013;-91
2023/01/07 09:03:34;;;;;;;28.55;6.72;;;;;;;6.19;61.54;94709.00;5063647;28;20071;-90
2023/01/07 09:05:59;;;;;;;18.33;7.63;;;;;;;6.26;61.79;94704.22;5065125;28;20024;-90
2023/01/07 09:08:25;;;;;;;28.17;7.93;;;;;;;6.33;61.56;94694.19;5065154;28;20021;-90
2023/01/07 09:10:50;;;;;;;15.13;7.13;;;;;;;6.38;60.54;94686.22;5065257;28;20028;-89
2023/01/07 09:13:16;;;;;;;17.73;7.63;;;;;;;6.39;60.08;94679.88;5064820;28;20025;-90
2023/01/07 09:15:42;;;;;;;17.00;6.97;;;;;;;6.34;60.19;94681.72;5064765;28;20323;-90
2023/01/07 09:18:07;;;;;;;18.73;6.97;;;;;;;6.35;60.22;94683.31;5063808;28;20028;-90
2023/01/07 09:20:33;;;;;;;21.92;6.45;;;;;;;6.40;60.07;94688.59;5064790;28;20020;-90
2023/01/07 09:22:58;;;;;;;22.58;7.25;;;;;;;6.42;60.17;94683.84;5064390;28;20028;-89
2023/01/07 09:25:24;;;;;;;14.02;6.35;;;;;;;6.48;60.19;94671.41;5064538;28;20052;-90
2023/01/07 09:27:49;;;;;;;16.85;6.68;;;;;;;6.48;60.25;94669.53;5064256;28;20050;-90
2023/01/07 09:30:15;;;;;;;16.08;7.63;;;;;;;6.51;60.04;94670.84;5064072;28;20048;-90
2023/01/07 09:32:42;;;;;;;17.60;7.72;;;;;;;6.53;59.90;94666.88;5063015;28;20032;-89
2023/01/07 09:35:08;;;;;;;14.90;7.35;;;;;;;6.61;60.04;94662.88;5065094;28;20036;-89
2023/01/07 09:37:33;;;;;;;18.38;7.75;;;;;;;6.65;59.93;94655.19;5068813;28;20356;-90
2023/01/07 09:40:02;;;;;;;18.02;7.38;;;;;;;6.74;59.89;94656.25;5075038;28;20055;-89
2023/01/07 09:42:28;;;;;;;23.55;8.52;;;;;;;6.81;59.57;94651.44;5071424;28;20027;-89
2023/01/07 09:45:17;;;;;;;20.13;8.10;;;;;;;6.90;59.20;94647.19;5066861;28;20315;-89
2023/01/07 09:47:48;;;;;;;19.20;7.82;;;;;;;6.93;59.26;94641.34;5063799;28;20039;-89
2023/01/07 09:50:51;;;;;;;22.27;7.60;;;;;;;7.03;59.05;94632.56;5062567;28;20256;-90
2023/01/07 09:53:42;;;;;;;;;;;;;;;;;;;;;
2023/01/07 09:56:35;;;;;;;21.30;8.93;;;;;;;7.08;58.82;94619.28;5064127;28;20059;-89
2023/01/07 09:59:05;;;;;;;14.30;7.57;;;;;;;7.12;58.63;94611.56;5064099;28;20289;-89
2023/01/07 10:01:37;;;;;;;22.60;8.57;;;;;;;7.17;58.54;94608.91;5063939;28;20088;-89
2023/01/07 10:04:23;;;;;;;21.25;9.20;;;;;;;7.18;58.41;94607.84;5062378;28;20029;-89
2023/01/07 10:07:08;;;;;;;21.55;9.85;;;;;;;7.21;58.09;94608.09;5062891;28;20075;-89
2023/01/07 10:09:59;;;;;;;26.20;11.48;;;;;;;7.18;58.30;94605.97;5062612;28;20029;-90
2023/01/07 10:13:13;;;;;;;;;;;;;;;;;;;;;
2023/01/07 10:16:02;;;;;;;21.98;9.13;;;;;;;7.46;57.62;94594.97;5062499;28;20068;-89
2023/01/07 10:19:03;;;;;;;24.33;10.15;;;;;;;7.59;57.38;94586.38;5063662;28;20283;-89
2023/01/07 10:21:45;;;;;;;24.92;9.80;;;;;;;7.66;56.92;94581.56;5063998;28;20024;-89
2023/01/07 10:24:27;;;;;;;24.73;9.07;;;;;;;7.77;56.58;94585.72;5062597;28;20037;-89
2023/01/07 10:27:02;;;;;;;23.42;10.30;;;;;;;7.90;56.37;94580.88;5063895;28;20057;-89
2023/01/07 10:29:33;;;;;;;19.80;10.20;;;;;;;7.88;56.49;94583.00;5063633;28;20032;-90
2023/01/07 10:32:10;;;;;;;26.13;9.75;;;;;;;7.90;56.73;94571.03;5064341;28;20041;-90
2023/01/07 10:34:43;;;;;;;19.83;9.63;;;;;;;8.02;56.52;94563.50;5062703;28;20227;-90
2023/01/07 10:37:28;;;;;;;20.30;9.38;;;;;;;8.17;56.14;94559.91;5063652;28;20329;-90
2023/01/07 10:40:25;;;;;;;25.10;9.73;;;;;;;8.32;56.19;94558.16;5063437;28;20096;-89
2023/01/07 10:43:23;;;;;;;23.33;9.70;;;;;;;8.47;55.52;94558.03;5067651;28;20166;-91
2023/01/07 10:45:58;;;;;;;20.83;9.07;;;;;;;8.61;54.23;94553.63;5067500;28;20032;-90
2023/01/07 10:48:35;;;;;;;21.00;10.25;;;;;;;8.64;54.35;94547.75;5066034;28;20107;-90
2023/01/07 10:51:24;;;;;;;24.73;9.25;;;;;;;8.68;54.14;94533.91;5067175;28;20327;-90
2023/01/07 10:54:07;;;;;;;18.90;9.82;;;;;;;8.72;53.86;94543.69;5066331;28;20020;-90
2023/01/07 10:56:44;;;;;;;29.83;9.60;;;;;;;8.69;53.77;94536.28;5065814;28;20033;-90
2023/01/07 10:59:14;;;;;;;21.98;9.98;;;;;;;8.66;55.17;94528.88;5066800;28;20032;-90
2023/01/07 11:01:46;;;;;;;21.45;10.55;;;;;;;8.69;54.52;94522.19;5066994;28;20036;-90
2023/01/07 11:04:14;;;;;;;20.98;10.35;;;;;;;8.85;53.88;94526.22;5066647;28;20184;-90
2023/01/07 11:07:07;;;;;;;22.02;9.27;;;;;;;8.96;53.79;94518.94;5065731;28;20020;-90
2023/01/07 11:09:37;;;;;;;27.17;9.55;;;;;;;8.98;53.64;94508.81;5066781;28;20013;-90
2023/01/07 11:12:26;;;;;;;19.73;9.57;;;;;;;9.08;52.72;94515.84;5066830;28;20048;-90
2023/01/07 11:14:55;;;;;;;24.65;10.25;;;;;;;9.09;52.92;94506.78;5066545;28;20075;-90
2023/01/07 11:17:38;;;;;;;20.17;9.30;;;;;;;9.10;52.72;94506.50;5066718;28;20060;-89
2023/01/07 11:20:05;;;;;;;29.35;9.50;;;;;;;9.14;52.67;94504.03;5065328;28;20035;-90
2023/01/07 11:22:35;;;;;;;17.80;10.07;;;;;;;9.24;52.49;94509.25;5065995;28;20025;-90
2023/01/07 11:25:27;;;;;;;22.17;11.80;;;;;;;9.21;52.66;94502.63;5066216;28;20020;-89
2023/01/07 11:28:08;;;;;;;33.90;12.07;;;;;;;9.28;52.69;94493.47;5065594;28;20044;-89
2023/01/07 11:30:36;;;;;;;28.02;12.05;;;;;;;9.34;52.20;94490.47;5065030;28;20021;-90
2023/01/07 11:33:08;;;;;;;25.58;12.30;;;;;;;9.36;51.85;94477.69;5066191;28;20047;-90
2023/01/07 11:35:39;;;;;;;31.17;12.87;;;;;;;9.45;52.29;94480.47;5065977;28;20066;-90
2023/01/07 11:38:31;;;;;;;25.13;13.93;;;;;;;9.59;51.45;94480.50;5065842;28;20279;-90
2023/01/07 11:40:59;;;;;;;26.92;13.07;;;;;;;9.69;50.98;94476.88;5066057;28;20020;-90
2023/01/07 11:43:31;;;;;;;29.48;12.25;;;;;;;9.71;50.84;94472.84;5064979;28;20024;-90
2023/01/07 11:46:00;;;;;;;35.30;15.15;;;;;;;9.71;50.55;94480.03;5068138;28;20029;-90
2023/01/07 11:48:31;;;;;;;27.23;13.82;;;;;;;9.63;51.17;94465.53;5075940;28;20017;-90